PWSweather.com
Personal Weather Stations
Station Observations
WISCHPK61
Green Bay Schmitt Park, Green Bay, WI 54311

Green Bay Schmitt ParkGreen Bay, WI 54311

Lat: 44.514277, Lon: -87.935067

Elevation: 735

Station Type: Acu Rite Pro Weather Center model 02032C

http://greenbayweathercam.com

High Low Average
Temperature 42.1°F5.6°C 21.2°F-6.0°C 31.3°F-0.4°C
Dew Point 41.8°F5.4°C 17.9°F-7.8°C 28.5°F-1.9°C
Winds 2.3 mph 3.7 kmh Calm Calm Calm SECalm SE
Wind Gusts 3.5 mph5.6 kmh -- --
Humidity 99% 46% 91%
Pressure 29.41 in995.9 mb 28.68 in971.2 mb -
Precipitation 0.13 in3.3 mm - -
Hour Temp Dew Point Humidity Winds Wind Gusts Pressure Precip Precip Rate Daily Precip Total
12:00 AM 21.9°F-5.6°C 21.7°F-5.7°C 99% Calm Calm -- 29.40 in995.6 mb - 0.00 in0.0 mm 0.10 in2.5 mm
01:00 AM 21.2°F-6.0°C 17.9°F-7.8°C 87% Calm Calm -- 29.40 in995.6 mb - 0.00 in0.0 mm 0.00 in0.0 mm
02:00 AM 21.4°F-5.9°C 21.2°F-6.0°C 99% Calm Calm -- 29.41 in995.9 mb - 0.00 in0.0 mm 0.00 in0.0 mm
03:00 AM 22.3°F-5.4°C 22.1°F-5.5°C 99% Calm Calm -- 29.40 in995.6 mb - 0.00 in0.0 mm 0.00 in0.0 mm
04:00 AM 21.9°F-5.6°C 21.7°F-5.7°C 99% Calm Calm -- 29.41 in995.9 mb - 0.00 in0.0 mm 0.00 in0.0 mm
05:00 AM 21.4°F-5.9°C 21.2°F-6.0°C 99% Calm Calm -- 29.39 in995.3 mb - 0.00 in0.0 mm 0.00 in0.0 mm
06:00 AM 22.6°F-5.2°C 22.4°F-5.3°C 99% Calm Calm -- 29.38 in994.9 mb - 0.00 in0.0 mm 0.00 in0.0 mm
07:00 AM 23.0°F-5.0°C 18.0°F-7.8°C 81% Calm Calm -- 29.36 in994.2 mb - 0.00 in0.0 mm 0.00 in0.0 mm
08:00 AM 25.0°F-3.9°C 24.8°F-4.0°C 99% Calm Calm -- 29.35 in993.9 mb - 0.00 in0.0 mm 0.00 in0.0 mm
09:00 AM 29.5°F-1.4°C 29.3°F-1.5°C 99% Calm Calm -- 29.33 in993.2 mb - 0.00 in0.0 mm 0.00 in0.0 mm
10:00 AM 34.7°F1.5°C 34.4°F1.3°C 99% Calm Calm -- 29.34 in993.6 mb - 0.00 in0.0 mm 0.00 in0.0 mm
11:00 AM 39.7°F4.3°C 39.4°F4.1°C 99% Calm Calm -- 29.30 in992.2 mb - 0.00 in0.0 mm 0.00 in0.0 mm
12:00 PM 41.8°F5.4°C 41.6°F5.3°C 99% Calm Calm -- 29.26 in990.9 mb - 0.02 in0.5 mm 0.02 in0.5 mm
01:00 PM 42.1°F5.6°C 41.8°F5.4°C 99% Calm Calm -- 29.23 in989.8 mb - 0.02 in0.5 mm 0.04 in1.0 mm
02:00 PM 40.8°F4.9°C 40.5°F4.7°C 99% 1.2 mph S1.9 kmh S 2.3 mph3.7 kmh 29.18 in988.1 mb - 0.02 in0.5 mm 0.06 in1.5 mm
03:00 PM 41.5°F5.3°C 41.2°F5.1°C 99% Calm Calm -- 29.10 in985.4 mb - 0.02 in0.5 mm 0.08 in2.0 mm
04:00 PM 39.7°F4.3°C 28.9°F-1.7°C 65% Calm Calm -- 29.06 in984.1 mb - 0.02 in0.5 mm 0.10 in2.5 mm
05:00 PM 37.9°F3.3°C 18.9°F-7.3°C 46% Calm Calm -- 29.02 in982.7 mb - 0.00 in0.0 mm 0.10 in2.5 mm
06:00 PM 35.4°F1.9°C 35.1°F1.7°C 99% Calm Calm -- 28.94 in980.0 mb - 0.00 in0.0 mm 0.10 in2.5 mm
07:00 PM 34.3°F1.3°C 22.2°F-5.4°C 61% 2.3 mph SSW3.7 kmh SSW 3.5 mph5.6 kmh 28.86 in977.3 mb - 0.01 in0.3 mm 0.11 in2.8 mm
08:00 PM 33.4°F0.8°C 33.1°F0.6°C 99% Calm Calm -- 28.81 in975.6 mb - 0.00 in0.0 mm 0.11 in2.8 mm
09:00 PM 31.8°F-0.1°C 23.1°F-4.9°C 70% Calm Calm -- 28.81 in975.6 mb - 0.02 in0.5 mm 0.13 in3.3 mm
10:00 PM 30.4°F-0.9°C 30.2°F-1.0°C 99% Calm Calm -- 28.77 in974.3 mb - 0.00 in0.0 mm 0.13 in3.3 mm
11:00 PM 29.7°F-1.3°C 29.5°F-1.4°C 99% Calm Calm -- 28.73 in972.9 mb - 0.00 in0.0 mm 0.13 in3.3 mm